DAUB

Biskra Airport

Biskra, Algeria
METAR DAUB 190000Z 11009KT 9999 SCT040 SCT100 16/11 Q1009
Observed Flight Rules
Nov-19 @ 00:00 UTC (59 minutes ago) Visual Flight Rules
Wind Visibility Clouds
110° at 9 knots 10,000+ meters
  • Scattered at 4,000' AGL
  • Scattered at 10,000' AGL
Temperatures Readings
Current 16°C / 61°F
Dewpoint 11°C / 52°F
Humidity 72%
Altimeter 29.79" Hg
Pressure 1009 hPa
Elevation 87
METAR DAUB 190000Z 11009KT 9999 SCT040 SCT100 16/11 Q1009
Observed Flight Rules
Nov-19 @ 00:00 UTC
(59 minutes ago)
VFR
Wind Visibility
110° at 9 knots 10,000+ meters
Clouds
  • Scattered at 4,000' AGL
  • Scattered at 10,000' AGL
Temperature Dewpoint
16°C / 61°F 11°C / 52°F
Humidity Altimeter Pressure
72% 29.79" Hg 1009 hPa